Terminal Aerodrome Forecast
Issued by NWS Nashville, TN

Home | Current Version | Previous Version | Text Only | Print | Product List | Glossary On
Versions: 1 2 3 4 5 6 7 8 9 10 11 12 13 14 15 16 17 18 19 20
125
FTUS44 KOHX 010117 AAA
TAFCSV
TAF AMD
KCSV 010117Z 0101/0124 17009G18KT P6SM FEW060 BKN070 OVC090
      TEMPO 0101/0103 5SM -SHRA OVC035
     FM010300 18014G22KT P6SM OVC100
     FM010500 18015G25KT P6SM OVC080 WS020/18045KT
      TEMPO 0105/0109 2SM SHRA OVC035
     FM010900 20014G22KT 5SM -SHRA OVC012
     FM011200 21012G18KT P6SM BKN040=

USA.gov is the U.S. government's official web portal to all federal, state and local government web resources and services.